createdAt,value
2017-11-21T00:00:26.847Z,29.80
2017-11-21T00:01:26.828Z,29.60
2017-11-21T00:02:26.807Z,30.00
2017-11-21T00:03:26.801Z,30.20
2017-11-21T00:04:26.777Z,32.70
2017-11-21T00:05:26.756Z,32.20
2017-11-21T00:06:26.739Z,32.20
2017-11-21T00:07:26.717Z,32.30
2017-11-21T00:08:26.708Z,33.90
2017-11-21T00:09:26.681Z,32.00
2017-11-21T00:10:26.678Z,31.20
2017-11-21T00:11:26.645Z,33.60
2017-11-21T00:12:26.627Z,32.80
2017-11-21T00:13:26.610Z,35.50
2017-11-21T00:14:26.587Z,36.40
2017-11-21T00:15:26.575Z,35.90
2017-11-21T00:16:26.550Z,35.30
2017-11-21T00:17:26.534Z,37.60
2017-11-21T00:18:26.513Z,37.80
2017-11-21T00:19:26.496Z,39.10
2017-11-21T00:20:26.534Z,38.70
2017-11-21T00:21:26.461Z,40.20
2017-11-21T00:22:26.439Z,40.20
2017-11-21T00:23:26.426Z,40.70
2017-11-21T00:24:26.420Z,40.20
2017-11-21T00:25:26.386Z,39.90
2017-11-21T00:26:26.371Z,41.50
2017-11-21T00:27:26.350Z,40.40
2017-11-21T00:28:26.342Z,39.60
2017-11-21T00:29:26.317Z,40.80
2017-11-21T00:30:26.296Z,41.10
2017-11-21T00:31:26.277Z,44.50
2017-11-21T00:32:26.258Z,44.30
2017-11-21T00:33:26.237Z,44.90
2017-11-21T00:34:26.218Z,45.90
2017-11-21T00:35:26.203Z,41.50
2017-11-21T00:36:26.184Z,46.30
2017-11-21T00:37:26.169Z,44.80
2017-11-21T00:38:26.146Z,45.20
2017-11-21T00:39:26.127Z,44.70
2017-11-21T00:40:26.110Z,46.40
2017-11-21T00:41:26.091Z,43.20
2017-11-21T00:42:26.076Z,44.30
2017-11-21T00:43:26.057Z,46.30
2017-11-21T00:44:26.045Z,44.50
2017-11-21T00:45:26.021Z,43.80
2017-11-21T00:46:25.997Z,44.10
2017-11-21T00:47:25.982Z,49.10
2017-11-21T00:48:25.974Z,48.50
2017-11-21T00:49:25.948Z,48.60
2017-11-21T00:50:25.926Z,47.60
2017-11-21T00:51:25.910Z,47.60
2017-11-21T00:52:25.894Z,46.70
2017-11-21T00:53:25.869Z,49.10
2017-11-21T00:54:25.856Z,48.70
2017-11-21T00:55:25.839Z,50.80
2017-11-21T00:56:25.818Z,51.40
2017-11-21T00:57:25.800Z,50.30
2017-11-21T00:58:25.784Z,51.60
2017-11-21T00:59:25.761Z,51.40
2017-11-21T01:00:25.744Z,50.50
2017-11-21T01:01:25.730Z,53.90
2017-11-21T01:02:25.707Z,52.90
2017-11-21T01:03:25.696Z,50.70
2017-11-21T01:04:25.671Z,50.20
2017-11-21T01:05:25.654Z,46.70
2017-11-21T01:06:25.635Z,48.60
2017-11-21T01:07:25.616Z,49.10
2017-11-21T01:08:25.602Z,47.70
2017-11-21T01:09:25.594Z,49.40
2017-11-21T01:10:25.564Z,49.80
2017-11-21T01:11:25.547Z,47.70
2017-11-21T01:12:25.526Z,48.40
2017-11-21T01:13:25.508Z,47.50
2017-11-21T01:14:25.497Z,47.90
2017-11-21T01:15:25.475Z,46.90
2017-11-21T01:16:25.451Z,48.10
2017-11-21T01:17:25.436Z,46.40
2017-11-21T01:18:25.418Z,43.70
2017-11-21T01:19:25.398Z,43.10
2017-11-21T01:20:25.381Z,42.70
2017-11-21T01:21:25.360Z,43.50
2017-11-21T01:22:25.352Z,42.40
2017-11-21T01:23:25.328Z,41.90
2017-11-21T01:24:25.306Z,40.30
2017-11-21T01:25:25.291Z,41.20
2017-11-21T01:26:25.273Z,42.70
2017-11-21T01:27:25.256Z,42.00
2017-11-21T01:28:25.240Z,44.20
2017-11-21T01:29:25.215Z,43.80
2017-11-21T01:30:25.197Z,42.10
2017-11-21T01:31:25.181Z,43.30
2017-11-21T01:32:25.163Z,42.20
2017-11-21T01:33:25.145Z,43.30
2017-11-21T01:34:25.132Z,40.00
2017-11-21T01:35:25.108Z,40.90
2017-11-21T01:36:25.086Z,43.90
2017-11-21T01:37:25.071Z,42.30
2017-11-21T01:38:25.061Z,41.70
2017-11-21T01:39:25.032Z,41.20
2017-11-21T01:40:25.016Z,42.60
2017-11-21T01:41:24.998Z,40.40
2017-11-21T01:42:24.983Z,39.80
2017-11-21T01:43:24.962Z,39.30
2017-11-21T01:44:24.943Z,40.80
2017-11-21T01:45:24.928Z,40.60
2017-11-21T01:46:24.908Z,37.90
2017-11-21T01:47:24.890Z,37.90
2017-11-21T01:48:24.879Z,37.90
2017-11-21T01:49:24.856Z,38.40
2017-11-21T01:50:24.834Z,37.80
2017-11-21T01:51:24.817Z,37.70
2017-11-21T01:52:24.801Z,38.90
2017-11-21T01:53:24.786Z,39.40
2017-11-21T01:54:24.764Z,39.00
2017-11-21T01:55:24.747Z,39.90
2017-11-21T01:56:24.727Z,40.40
2017-11-21T01:57:24.712Z,38.20
2017-11-21T01:58:24.702Z,38.10
2017-11-21T01:59:24.674Z,38.40
2017-11-21T02:00:24.658Z,38.60
2017-11-21T02:01:24.637Z,37.40
2017-11-21T02:02:24.617Z,38.90
2017-11-21T02:03:24.606Z,41.70
2017-11-21T02:04:24.582Z,40.60
2017-11-21T02:05:24.570Z,39.40
2017-11-21T02:06:24.548Z,40.50
2017-11-21T02:07:24.532Z,39.90
2017-11-21T02:08:24.525Z,39.00
2017-11-21T02:09:24.497Z,40.90
2017-11-21T02:10:24.480Z,39.80
2017-11-21T02:11:24.459Z,40.10
2017-11-21T02:12:24.441Z,40.80
2017-11-21T02:13:24.424Z,39.80
2017-11-21T02:14:24.401Z,39.90
2017-11-21T02:15:24.387Z,39.10
2017-11-21T02:16:24.375Z,41.20
2017-11-21T02:17:24.353Z,40.90
2017-11-21T02:18:24.330Z,42.50
2017-11-21T02:19:24.314Z,43.70
2017-11-21T02:20:24.297Z,42.60
2017-11-21T02:21:24.284Z,44.90
2017-11-21T02:22:24.257Z,44.00
2017-11-21T02:23:24.244Z,48.60
2017-11-21T02:24:24.231Z,45.30
2017-11-21T02:25:24.206Z,44.90
2017-11-21T02:26:24.187Z,43.80
2017-11-21T02:27:24.171Z,42.60
2017-11-21T02:28:24.154Z,44.20
2017-11-21T02:29:24.132Z,45.10
2017-11-21T02:30:24.117Z,47.00
2017-11-21T02:31:24.097Z,45.80
2017-11-21T02:32:24.077Z,46.10
2017-11-21T02:33:24.061Z,48.70
2017-11-21T02:34:24.049Z,47.20
2017-11-21T02:35:24.027Z,48.00
2017-11-21T02:36:24.006Z,50.40
2017-11-21T02:37:23.987Z,50.50
2017-11-21T02:38:23.975Z,46.60
2017-11-21T02:39:23.951Z,46.60
2017-11-21T02:40:23.935Z,47.00
2017-11-21T02:41:23.918Z,46.70
2017-11-21T02:42:23.898Z,48.20
2017-11-21T02:43:23.879Z,47.30
2017-11-21T02:44:23.863Z,46.00
2017-11-21T02:45:23.844Z,48.70
2017-11-21T02:46:23.826Z,49.30
2017-11-21T02:47:23.807Z,48.10
2017-11-21T02:48:23.794Z,49.70
2017-11-21T02:49:23.781Z,50.60
2017-11-21T02:50:23.756Z,50.80
2017-11-21T02:51:23.737Z,50.20
2017-11-21T02:52:23.717Z,52.20
2017-11-21T02:53:23.706Z,50.00
2017-11-21T02:54:23.681Z,51.90
2017-11-21T02:55:23.665Z,50.70
2017-11-21T02:56:23.648Z,50.10
2017-11-21T02:57:23.629Z,52.70
2017-11-21T02:58:23.615Z,52.00
2017-11-21T02:59:23.593Z,53.90
2017-11-21T03:00:23.577Z,52.70
2017-11-21T03:01:23.556Z,50.00
2017-11-21T03:02:23.536Z,47.50
2017-11-21T03:03:23.523Z,49.40
2017-11-21T03:04:23.508Z,48.00
2017-11-21T03:05:23.482Z,47.90
2017-11-21T03:06:23.467Z,50.80
2017-11-21T03:07:23.448Z,46.70
2017-11-21T03:08:23.445Z,49.50
2017-11-21T03:09:23.412Z,44.40
2017-11-21T03:10:23.396Z,45.20
2017-11-21T03:11:23.377Z,47.30
2017-11-21T03:12:23.357Z,45.30
2017-11-21T03:13:23.341Z,48.10
2017-11-21T03:14:23.324Z,47.70
2017-11-21T03:15:23.308Z,43.80
2017-11-21T03:16:23.289Z,47.10
2017-11-21T03:17:23.271Z,46.40
2017-11-21T03:18:23.248Z,48.10
2017-11-21T03:19:23.231Z,47.20
2017-11-21T03:20:23.215Z,45.00
2017-11-21T03:21:23.197Z,45.70
2017-11-21T03:22:23.180Z,44.10
2017-11-21T03:23:23.159Z,44.80
2017-11-21T03:24:23.144Z,45.50
2017-11-21T03:25:23.128Z,44.50
2017-11-21T03:26:23.107Z,44.20
2017-11-21T03:27:23.088Z,45.30
2017-11-21T03:28:23.072Z,43.20
2017-11-21T03:29:23.057Z,45.50
2017-11-21T03:30:23.035Z,48.30
2017-11-21T03:31:23.017Z,43.90
2017-11-21T03:32:22.998Z,45.00
2017-11-21T03:33:22.985Z,44.20
2017-11-21T03:34:22.963Z,41.40
2017-11-21T03:35:22.951Z,41.50
2017-11-21T03:36:22.931Z,41.40
2017-11-21T03:37:22.907Z,41.90
2017-11-21T03:38:22.890Z,42.50
2017-11-21T03:39:22.897Z,44.10
2017-11-21T03:40:22.861Z,42.20
2017-11-21T03:41:22.837Z,46.00
2017-11-21T03:42:22.820Z,46.60
2017-11-21T03:43:22.804Z,47.30
2017-11-21T03:44:22.783Z,45.30
2017-11-21T03:45:22.765Z,44.70
2017-11-21T03:46:22.751Z,46.00
2017-11-21T03:47:22.730Z,46.30
2017-11-21T03:48:22.714Z,46.40
2017-11-21T03:49:22.693Z,49.00
2017-11-21T03:50:22.678Z,48.40
2017-11-21T03:51:22.664Z,47.80
2017-11-21T03:52:22.647Z,48.60
2017-11-21T03:53:22.625Z,49.30
2017-11-21T03:54:22.605Z,50.30
2017-11-21T03:55:22.588Z,49.30
2017-11-21T03:56:22.574Z,49.60
2017-11-21T03:57:22.558Z,50.90
2017-11-21T03:58:22.536Z,50.70
2017-11-21T03:59:22.517Z,52.50
2017-11-21T04:00:22.496Z,53.90
2017-11-21T04:01:22.480Z,53.40
2017-11-21T04:02:22.465Z,52.80
2017-11-21T04:03:22.446Z,55.40
2017-11-21T04:04:22.426Z,54.10
2017-11-21T04:05:22.410Z,52.40
2017-11-21T04:06:22.393Z,52.70
2017-11-21T04:07:22.377Z,50.40
2017-11-21T04:08:22.357Z,53.30
2017-11-21T04:09:22.337Z,52.50
2017-11-21T04:10:22.322Z,49.70
2017-11-21T04:11:22.304Z,49.90
2017-11-21T04:12:22.288Z,49.00
2017-11-21T04:13:22.267Z,47.10
2017-11-21T04:14:22.250Z,46.60
2017-11-21T04:15:22.231Z,42.50
2017-11-21T04:16:22.211Z,42.40
2017-11-21T04:17:22.197Z,44.40
2017-11-21T04:18:22.177Z,42.60
2017-11-21T04:19:22.160Z,46.00
2017-11-21T04:20:22.140Z,43.00
2017-11-21T04:21:22.128Z,41.10
2017-11-21T04:22:22.107Z,43.60
2017-11-21T04:23:22.087Z,45.90
2017-11-21T04:24:22.068Z,48.00
2017-11-21T04:25:22.054Z,48.70
2017-11-21T04:26:22.034Z,48.10
2017-11-21T04:27:22.018Z,49.50
2017-11-21T04:28:21.997Z,50.20
2017-11-21T04:29:21.983Z,51.50
2017-11-21T04:30:21.971Z,52.80
2017-11-21T04:31:21.947Z,52.00
2017-11-21T04:32:21.934Z,53.70
2017-11-21T04:33:21.910Z,55.90
2017-11-21T04:34:21.893Z,53.00
2017-11-21T04:35:21.876Z,55.70
2017-11-21T04:36:21.858Z,51.90
2017-11-21T04:37:21.840Z,53.60
2017-11-21T04:38:21.821Z,53.00
2017-11-21T04:39:21.808Z,56.30
2017-11-21T04:40:21.784Z,56.40
2017-11-21T04:41:21.767Z,54.50
2017-11-21T04:42:21.753Z,57.60
2017-11-21T04:43:21.738Z,56.90
2017-11-21T04:44:21.713Z,57.10
2017-11-21T04:45:21.697Z,56.90
2017-11-21T04:46:21.683Z,57.80
2017-11-21T04:47:21.663Z,59.20
2017-11-21T04:48:21.644Z,59.30
2017-11-21T04:49:21.626Z,58.70
2017-11-21T04:50:21.608Z,60.40
2017-11-21T04:51:21.595Z,60.20
2017-11-21T04:52:21.570Z,60.50
2017-11-21T04:53:21.554Z,63.00
2017-11-21T04:54:21.539Z,60.90
2017-11-21T04:55:21.521Z,58.80
2017-11-21T04:56:21.508Z,59.40
2017-11-21T04:57:21.484Z,61.00
2017-11-21T04:58:21.466Z,62.30
2017-11-21T04:59:21.447Z,58.90
2017-11-21T05:00:21.428Z,58.80
2017-11-21T05:01:21.413Z,60.50
2017-11-21T05:02:21.397Z,60.90
2017-11-21T05:03:21.377Z,59.50
2017-11-21T05:04:21.361Z,61.00
2017-11-21T05:05:21.345Z,61.00
2017-11-21T05:06:21.324Z,60.70
2017-11-21T05:07:21.316Z,59.80
2017-11-21T05:08:21.292Z,58.50
2017-11-21T05:09:21.278Z,57.60
2017-11-21T05:10:21.255Z,57.40
2017-11-21T05:11:21.248Z,56.90
2017-11-21T05:12:21.217Z,58.50
2017-11-21T05:13:21.201Z,59.70
2017-11-21T05:14:21.184Z,56.30
2017-11-21T05:15:21.167Z,57.90
2017-11-21T05:16:21.151Z,58.00
2017-11-21T05:17:21.131Z,59.40
2017-11-21T05:18:21.111Z,58.80
2017-11-21T05:19:21.094Z,59.40
2017-11-21T05:20:21.074Z,58.50
2017-11-21T05:21:21.057Z,57.10
2017-11-21T05:22:21.037Z,59.00
2017-11-21T05:23:21.030Z,59.30
2017-11-21T05:24:21.001Z,60.60
2017-11-21T05:25:20.990Z,62.40
2017-11-21T05:26:20.969Z,64.70
2017-11-21T05:27:20.954Z,60.80
2017-11-21T05:28:20.931Z,63.50
2017-11-21T05:29:20.916Z,62.20
2017-11-21T05:30:20.905Z,62.00
2017-11-21T05:31:20.885Z,62.10
2017-11-21T05:32:20.860Z,63.20
2017-11-21T05:33:20.843Z,64.50
2017-11-21T05:34:20.830Z,63.60
2017-11-21T05:35:20.810Z,63.50
2017-11-21T05:36:20.797Z,65.10
2017-11-21T05:37:20.774Z,66.20
2017-11-21T05:38:20.756Z,65.40
2017-11-21T05:39:20.738Z,63.70
2017-11-21T05:40:20.723Z,64.60
2017-11-21T05:41:20.707Z,65.20
2017-11-21T05:42:20.694Z,65.70
2017-11-21T05:43:20.666Z,63.30
2017-11-21T05:44:20.652Z,65.00
2017-11-21T05:45:20.630Z,64.30
2017-11-21T05:46:20.614Z,66.40
2017-11-21T05:47:20.598Z,67.70
2017-11-21T05:48:20.577Z,67.50
2017-11-21T05:49:20.558Z,64.90
2017-11-21T05:50:20.546Z,63.00
2017-11-21T05:51:20.527Z,64.10
2017-11-21T05:52:20.512Z,68.30
2017-11-21T05:53:20.493Z,65.50
2017-11-21T05:54:20.474Z,69.50
2017-11-21T05:55:20.452Z,68.70
2017-11-21T05:56:20.437Z,64.10
2017-11-21T05:57:20.425Z,64.00
2017-11-21T05:58:20.399Z,65.00
2017-11-21T05:59:20.382Z,68.00
2017-11-21T06:00:20.368Z,63.50
2017-11-21T06:01:20.358Z,64.80
2017-11-21T06:02:20.334Z,66.10
2017-11-21T06:03:20.325Z,66.00
2017-11-21T06:04:20.300Z,66.70
2017-11-21T06:05:20.281Z,66.40
2017-11-21T06:06:20.259Z,69.50
2017-11-21T06:07:20.244Z,67.50
2017-11-21T06:08:20.230Z,67.70
2017-11-21T06:09:20.206Z,63.50
2017-11-21T06:10:20.189Z,65.00
2017-11-21T06:11:20.172Z,64.50
2017-11-21T06:12:20.164Z,65.40
2017-11-21T06:13:20.138Z,65.00
2017-11-21T06:14:20.117Z,62.10
2017-11-21T06:15:20.100Z,67.10
2017-11-21T06:16:20.090Z,63.80
2017-11-21T06:17:20.069Z,64.20
2017-11-21T06:18:20.054Z,63.80
2017-11-21T06:19:20.038Z,63.60
2017-11-21T06:20:20.016Z,65.90
2017-11-21T06:21:19.999Z,63.30
2017-11-21T06:22:19.978Z,62.80
2017-11-21T06:23:19.958Z,62.90
2017-11-21T06:24:19.944Z,64.50
2017-11-21T06:25:19.928Z,61.40
2017-11-21T06:26:19.933Z,62.70
2017-11-21T06:27:19.892Z,63.80
2017-11-21T06:28:19.872Z,60.50
2017-11-21T06:29:19.858Z,63.40
2017-11-21T06:30:19.837Z,64.10
2017-11-21T06:31:19.816Z,63.70
2017-11-21T06:32:19.802Z,62.70
2017-11-21T06:33:19.792Z,64.40
2017-11-21T06:34:19.770Z,64.50
2017-11-21T06:35:19.746Z,65.40
2017-11-21T06:36:19.729Z,65.80
2017-11-21T06:37:19.737Z,65.30
2017-11-21T06:38:19.707Z,65.30
2017-11-21T06:39:19.691Z,66.00
2017-11-21T06:40:19.659Z,67.00
2017-11-21T06:41:19.642Z,66.90
2017-11-21T06:42:19.632Z,67.90
2017-11-21T06:43:19.607Z,69.80
2017-11-21T06:44:19.591Z,67.40
2017-11-21T06:45:19.575Z,70.20
2017-11-21T06:46:19.558Z,68.90
2017-11-21T06:47:19.534Z,72.40
2017-11-21T06:48:19.516Z,72.50
2017-11-21T06:49:19.500Z,69.40
2017-11-21T06:50:19.485Z,70.50
2017-11-21T06:51:19.467Z,69.10
2017-11-21T06:52:19.446Z,72.10
2017-11-21T06:53:19.431Z,70.40
2017-11-21T06:54:19.415Z,71.50
2017-11-21T06:55:19.395Z,72.10
2017-11-21T06:56:19.377Z,72.50
2017-11-21T06:57:19.367Z,71.70
2017-11-21T06:58:19.341Z,72.50
2017-11-21T06:59:19.327Z,70.60
2017-11-21T07:00:19.308Z,73.00
2017-11-21T07:01:19.290Z,72.50
2017-11-21T07:02:19.271Z,73.00
2017-11-21T07:03:19.269Z,71.10
2017-11-21T07:04:19.238Z,70.40
2017-11-21T07:05:19.227Z,72.00
2017-11-21T07:06:19.202Z,70.80
2017-11-21T07:07:19.184Z,75.90
2017-11-21T07:08:19.170Z,74.30
2017-11-21T07:09:19.148Z,72.60
2017-11-21T07:10:19.135Z,77.50
2017-11-21T07:11:19.120Z,70.70
2017-11-21T07:12:19.118Z,72.70
2017-11-21T07:13:19.077Z,75.50
2017-11-21T07:14:19.064Z,73.60
2017-11-21T07:15:19.043Z,72.30
2017-11-21T07:16:19.025Z,71.70
2017-11-21T07:17:19.007Z,70.60
2017-11-21T07:18:18.994Z,69.10
2017-11-21T07:19:18.978Z,65.20
2017-11-21T07:20:18.958Z,65.20
2017-11-21T07:21:18.938Z,66.70
2017-11-21T07:22:18.926Z,67.80
2017-11-21T07:23:18.907Z,62.20
2017-11-21T07:24:18.887Z,60.80
2017-11-21T07:25:18.874Z,63.60
2017-11-21T07:26:18.856Z,61.80
2017-11-21T07:27:18.836Z,64.40
2017-11-21T07:28:18.818Z,67.20
2017-11-21T07:29:18.806Z,63.40
2017-11-21T07:30:18.787Z,60.90
2017-11-21T07:31:18.764Z,64.80
2017-11-21T07:32:18.747Z,62.30
2017-11-21T07:33:18.734Z,62.60
2017-11-21T07:34:18.710Z,60.30
2017-11-21T07:35:18.694Z,63.50
2017-11-21T07:36:18.679Z,60.20
2017-11-21T07:37:18.659Z,63.70
2017-11-21T07:38:18.640Z,57.70
2017-11-21T07:39:18.623Z,61.50
2017-11-21T07:40:18.609Z,59.90
2017-11-21T07:41:18.586Z,59.70
2017-11-21T07:42:18.569Z,62.80
2017-11-21T07:43:18.553Z,64.20
2017-11-21T07:44:18.536Z,58.80
2017-11-21T07:45:18.517Z,49.50
2017-11-21T07:46:18.509Z,48.50
2017-11-21T07:47:18.482Z,49.60
2017-11-21T07:48:18.466Z,48.30
2017-11-21T07:49:18.450Z,49.70
2017-11-21T07:50:18.443Z,47.20
2017-11-21T07:51:18.414Z,45.80
2017-11-21T07:52:18.400Z,46.60
2017-11-21T07:53:18.377Z,46.20
2017-11-21T07:54:18.364Z,45.20
2017-11-21T07:55:18.340Z,43.80
2017-11-21T07:56:18.323Z,44.80
2017-11-21T07:57:18.305Z,44.00
2017-11-21T07:58:18.288Z,44.10
2017-11-21T07:59:18.272Z,40.70
2017-11-21T08:00:18.261Z,42.50
2017-11-21T08:01:18.236Z,41.50
2017-11-21T08:02:18.214Z,41.20
2017-11-21T08:03:18.198Z,41.00
2017-11-21T08:04:18.188Z,39.40
2017-11-21T08:05:18.165Z,39.80
2017-11-21T08:06:18.154Z,39.70
2017-11-21T08:07:18.124Z,41.90
2017-11-21T08:08:18.109Z,40.90
2017-11-21T08:09:18.099Z,41.00
2017-11-21T08:10:18.069Z,40.90
2017-11-21T08:11:18.062Z,39.90
2017-11-21T08:12:18.037Z,39.70
2017-11-21T08:13:18.017Z,40.40
2017-11-21T08:14:17.998Z,39.00
2017-11-21T08:15:17.987Z,42.10
2017-11-21T08:16:17.967Z,42.00
2017-11-21T08:17:17.963Z,44.00
2017-11-21T08:18:17.926Z,42.80
2017-11-21T08:19:17.908Z,41.50
2017-11-21T08:20:17.897Z,41.90
2017-11-21T08:21:17.873Z,43.70
2017-11-21T08:22:17.856Z,45.10
2017-11-21T08:23:17.838Z,43.70
2017-11-21T08:24:17.822Z,44.70
2017-11-21T08:25:17.802Z,41.60
2017-11-21T08:26:17.788Z,45.20
2017-11-21T08:27:17.763Z,45.50
2017-11-21T08:28:17.749Z,45.50
2017-11-21T08:29:17.728Z,46.20
2017-11-21T08:30:17.718Z,45.80
2017-11-21T08:31:17.692Z,48.80
2017-11-21T08:32:17.678Z,47.20
2017-11-21T08:33:17.680Z,47.50
2017-11-21T08:34:17.637Z,50.40
2017-11-21T08:35:17.620Z,47.40
2017-11-21T08:36:17.605Z,48.70
2017-11-21T08:37:17.597Z,48.50
2017-11-21T08:38:17.569Z,48.70
2017-11-21T08:39:17.548Z,47.10
2017-11-21T08:40:17.527Z,47.80
2017-11-21T08:41:17.511Z,48.50
2017-11-21T08:42:17.494Z,48.20
2017-11-21T08:43:17.479Z,46.30
2017-11-21T08:44:17.457Z,49.00
2017-11-21T08:45:17.445Z,46.30
2017-11-21T08:46:17.422Z,49.30
2017-11-21T08:47:17.410Z,48.10
2017-11-21T08:48:17.396Z,49.10
2017-11-21T08:49:17.367Z,48.20
2017-11-21T08:50:17.347Z,49.60
2017-11-21T08:51:17.338Z,48.90
2017-11-21T08:52:17.319Z,49.50
2017-11-21T08:53:17.297Z,47.40
2017-11-21T08:54:17.279Z,49.60
2017-11-21T08:55:17.271Z,49.60
2017-11-21T08:56:17.241Z,47.60
2017-11-21T08:57:17.228Z,49.90
2017-11-21T08:58:17.208Z,44.80
2017-11-21T08:59:17.188Z,46.70
2017-11-21T09:00:17.168Z,47.10
2017-11-21T09:01:17.154Z,47.10
2017-11-21T09:02:17.133Z,45.20
2017-11-21T09:03:17.115Z,48.00
2017-11-21T09:04:17.095Z,46.50
2017-11-21T09:05:17.083Z,50.10
2017-11-21T09:06:17.059Z,47.80
2017-11-21T09:07:17.043Z,49.00
2017-11-21T09:08:17.028Z,51.20
2017-11-21T09:09:17.008Z,50.00
2017-11-21T09:10:16.991Z,50.10
2017-11-21T09:11:16.973Z,50.00
2017-11-21T09:12:16.952Z,49.70
2017-11-21T09:13:16.940Z,49.90
2017-11-21T09:14:16.920Z,53.10
2017-11-21T09:15:16.899Z,50.40
2017-11-21T09:16:16.878Z,50.60
2017-11-21T09:17:16.862Z,50.40
2017-11-21T09:18:16.850Z,51.50
2017-11-21T09:19:16.830Z,51.10
2017-11-21T09:20:16.819Z,50.90
2017-11-21T09:21:16.798Z,52.70
2017-11-21T09:22:16.775Z,53.00
2017-11-21T09:23:16.758Z,54.00
2017-11-21T09:24:16.744Z,54.10
2017-11-21T09:25:16.718Z,52.70
2017-11-21T09:26:16.704Z,53.90
2017-11-21T09:27:16.687Z,55.70
2017-11-21T09:28:16.665Z,53.50
2017-11-21T09:29:16.646Z,54.20
2017-11-21T09:30:16.627Z,57.50
2017-11-21T09:31:16.611Z,54.50
2017-11-21T09:32:16.592Z,51.10
2017-11-21T09:33:16.575Z,51.90
2017-11-21T09:34:16.558Z,55.20
2017-11-21T09:35:16.535Z,56.10
2017-11-21T09:36:16.521Z,52.90
2017-11-21T09:37:16.507Z,52.00
2017-11-21T09:38:16.482Z,53.50
2017-11-21T09:39:16.471Z,56.70
2017-11-21T09:40:16.456Z,55.70
2017-11-21T09:41:16.435Z,55.60
2017-11-21T09:42:16.418Z,54.60
2017-11-21T09:43:16.397Z,50.90
2017-11-21T09:44:16.379Z,55.30
2017-11-21T09:45:16.358Z,54.60
2017-11-21T09:46:16.340Z,55.20
2017-11-21T09:47:16.328Z,49.80
2017-11-21T09:48:16.309Z,51.30
2017-11-21T09:49:16.288Z,53.10
2017-11-21T09:50:16.269Z,52.30
2017-11-21T09:51:16.248Z,54.30
2017-11-21T09:52:16.236Z,54.30
2017-11-21T09:53:16.215Z,53.20
2017-11-21T09:54:16.198Z,52.70
2017-11-21T09:55:16.177Z,47.80
2017-11-21T09:56:16.166Z,48.50
2017-11-21T09:57:16.143Z,47.90
2017-11-21T09:58:16.128Z,48.10
2017-11-21T09:59:16.108Z,48.30
2017-11-21T10:00:16.100Z,48.30
2017-11-21T10:01:16.077Z,47.00
2017-11-21T10:02:16.055Z,50.30
2017-11-21T10:03:16.039Z,45.00
2017-11-21T10:04:16.020Z,44.70
2017-11-21T10:05:16.009Z,43.30
2017-11-21T10:06:15.983Z,43.40
2017-11-21T10:07:15.965Z,43.20
2017-11-21T10:08:15.946Z,45.80
2017-11-21T10:09:15.938Z,40.70
2017-11-21T10:10:15.909Z,37.80
2017-11-21T10:11:15.890Z,39.20
2017-11-21T10:12:15.873Z,36.80
2017-11-21T10:13:15.857Z,36.30
2017-11-21T10:14:15.839Z,35.30
2017-11-21T10:15:15.817Z,33.70
2017-11-21T10:16:15.821Z,35.80
2017-11-21T10:17:15.791Z,34.60
2017-11-21T10:18:15.768Z,36.40
2017-11-21T10:19:15.746Z,31.00
2017-11-21T10:20:15.733Z,28.60
2017-11-21T10:21:15.719Z,30.80
2017-11-21T10:22:15.693Z,31.00
2017-11-21T10:23:15.679Z,31.40
2017-11-21T10:24:15.659Z,31.00
2017-11-21T10:25:15.646Z,30.50
2017-11-21T10:26:15.624Z,33.10
2017-11-21T10:27:15.605Z,31.20
2017-11-21T10:28:15.587Z,29.30
2017-11-21T10:29:15.571Z,30.70
2017-11-21T10:30:15.550Z,28.30
2017-11-21T10:31:15.535Z,28.60
2017-11-21T10:32:15.517Z,25.50
2017-11-21T10:33:15.498Z,28.10
2017-11-21T10:34:15.477Z,28.10
2017-11-21T10:35:15.463Z,28.40
2017-11-21T10:36:15.447Z,25.20
2017-11-21T10:37:15.428Z,25.60
2017-11-21T10:38:15.407Z,27.60
2017-11-21T10:39:15.388Z,25.60
2017-11-21T10:40:15.379Z,25.00
2017-11-21T10:41:15.360Z,25.70
2017-11-21T10:42:15.332Z,22.90
2017-11-21T10:43:15.314Z,23.80
2017-11-21T10:44:15.299Z,24.40
2017-11-21T10:45:15.283Z,23.50
2017-11-21T10:46:15.266Z,24.20
2017-11-21T10:47:15.247Z,23.70
2017-11-21T10:48:15.228Z,24.00
2017-11-21T10:49:15.219Z,23.30
2017-11-21T10:50:15.194Z,23.30
2017-11-21T10:51:15.178Z,19.90
2017-11-21T10:52:15.156Z,20.30
2017-11-21T10:53:15.142Z,18.70
2017-11-21T10:54:15.122Z,20.10
2017-11-21T10:55:15.106Z,20.10
2017-11-21T10:56:15.083Z,20.10
2017-11-21T10:57:15.069Z,18.20
2017-11-21T10:58:15.049Z,17.50
2017-11-21T10:59:15.038Z,18.70
2017-11-21T11:00:15.013Z,18.90
2017-11-21T11:01:14.995Z,15.80
2017-11-21T11:02:14.981Z,17.20
2017-11-21T11:03:14.957Z,17.00
2017-11-21T11:04:14.944Z,16.90
2017-11-21T11:05:14.925Z,15.80
2017-11-21T11:06:14.904Z,16.00
2017-11-21T11:07:14.885Z,14.60
2017-11-21T11:08:14.868Z,15.00
2017-11-21T11:09:14.855Z,14.80
2017-11-21T11:10:14.837Z,14.00
2017-11-21T11:11:14.820Z,13.80
2017-11-21T11:12:14.797Z,13.50
2017-11-21T11:13:14.778Z,14.00
2017-11-21T11:14:14.768Z,14.60
2017-11-21T11:15:14.749Z,14.40
2017-11-21T11:16:14.726Z,14.60
2017-11-21T11:17:14.710Z,15.20
2017-11-21T11:18:14.690Z,14.60
2017-11-21T11:19:14.686Z,14.90
2017-11-21T11:20:14.664Z,14.50
2017-11-21T11:21:14.638Z,14.50
2017-11-21T11:22:14.617Z,14.00
2017-11-21T11:23:14.603Z,13.80
2017-11-21T11:24:14.586Z,12.90
2017-11-21T11:25:14.571Z,12.80
2017-11-21T11:26:14.550Z,12.10
2017-11-21T11:27:14.527Z,12.10
2017-11-21T11:28:14.515Z,12.80
2017-11-21T11:29:14.496Z,13.40
2017-11-21T11:30:14.483Z,13.90
2017-11-21T11:31:14.459Z,13.00
2017-11-21T11:32:14.438Z,13.00
2017-11-21T11:33:14.423Z,12.10
2017-11-21T11:34:14.415Z,11.60
2017-11-21T11:35:14.388Z,11.40
2017-11-21T11:36:14.371Z,11.80
2017-11-21T11:37:14.350Z,11.60
2017-11-21T11:38:14.333Z,12.10
2017-11-21T11:39:14.315Z,12.60
2017-11-21T11:40:14.303Z,12.40
2017-11-21T11:41:14.278Z,12.30
2017-11-21T11:42:14.272Z,12.30
2017-11-21T11:43:14.254Z,12.80
2017-11-21T11:44:14.231Z,13.20
2017-11-21T11:45:14.209Z,13.20
2017-11-21T11:46:14.214Z,13.20
2017-11-21T11:47:14.174Z,14.00
2017-11-21T11:48:14.161Z,14.10
2017-11-21T11:49:14.139Z,15.50
2017-11-21T11:50:14.119Z,15.30
2017-11-21T11:51:14.107Z,17.50
2017-11-21T11:52:14.087Z,17.20
2017-11-21T11:53:14.071Z,16.80
2017-11-21T11:54:14.049Z,17.20
2017-11-21T11:55:14.032Z,18.20
2017-11-21T11:56:14.013Z,18.70
2017-11-21T11:57:13.993Z,17.50
2017-11-21T11:58:13.981Z,17.20
2017-11-21T11:59:13.958Z,18.40
2017-11-21T12:00:13.946Z,16.60
2017-11-21T12:01:13.932Z,17.80
2017-11-21T12:02:13.908Z,17.90
2017-11-21T12:03:13.889Z,17.90
2017-11-21T12:04:13.874Z,16.20
2017-11-21T12:05:13.852Z,16.00
2017-11-21T12:06:13.838Z,15.80
2017-11-21T12:07:13.817Z,17.30
2017-11-21T12:08:13.808Z,15.70
2017-11-21T12:09:13.781Z,13.60
2017-11-21T12:10:13.771Z,13.10
2017-11-21T12:11:13.748Z,12.30
2017-11-21T12:12:13.738Z,13.70
2017-11-21T12:13:13.718Z,12.80
2017-11-21T12:14:13.693Z,13.80
2017-11-21T12:15:13.678Z,13.80
2017-11-21T12:16:13.662Z,13.40
2017-11-21T12:17:13.642Z,14.50
2017-11-21T12:18:13.621Z,14.50
2017-11-21T12:19:13.602Z,13.70
2017-11-21T12:20:13.588Z,13.80
2017-11-21T12:21:13.566Z,13.10
2017-11-21T12:22:13.553Z,11.90
2017-11-21T12:23:13.532Z,12.00
2017-11-21T12:24:13.520Z,11.90
2017-11-21T12:25:13.504Z,12.80
2017-11-21T12:26:13.479Z,11.90
2017-11-21T12:27:13.459Z,12.60
2017-11-21T12:28:13.460Z,11.90
2017-11-21T12:29:13.425Z,13.50
2017-11-21T12:30:13.412Z,12.30
2017-11-21T12:31:13.392Z,12.60
2017-11-21T12:32:13.367Z,12.40
2017-11-21T12:33:13.357Z,12.80
2017-11-21T12:34:13.353Z,13.20
2017-11-21T12:35:13.315Z,12.30
2017-11-21T12:36:13.302Z,12.50
2017-11-21T12:37:13.288Z,12.00
2017-11-21T12:38:13.274Z,12.50
2017-11-21T12:39:13.243Z,12.70
2017-11-21T12:40:13.225Z,12.90
2017-11-21T12:41:13.208Z,13.80
2017-11-21T12:42:13.204Z,13.70
2017-11-21T12:43:13.172Z,14.00
2017-11-21T12:44:13.156Z,13.70
2017-11-21T12:45:13.138Z,15.40
2017-11-21T12:46:13.118Z,13.80
2017-11-21T12:47:13.100Z,13.80
2017-11-21T12:48:13.085Z,13.70
2017-11-21T12:49:13.076Z,14.30
2017-11-21T12:50:13.048Z,15.80
2017-11-21T12:51:13.047Z,16.30
2017-11-21T12:52:13.014Z,15.00